sensor_id;sensor_type;location;lat;lon;timestamp;temperature;humidity
80937;DHT22;70395;51.382;7.074;2024-02-26T00:00:39;8.50;60.20
80937;DHT22;70395;51.382;7.074;2024-02-26T00:03:04;8.50;60.00
80937;DHT22;70395;51.382;7.074;2024-02-26T00:05:30;8.50;60.00
80937;DHT22;70395;51.382;7.074;2024-02-26T00:07:57;8.60;60.20
80937;DHT22;70395;51.382;7.074;2024-02-26T00:10:22;8.60;60.40
80937;DHT22;70395;51.382;7.074;2024-02-26T00:12:49;8.60;60.70
80937;DHT22;70395;51.382;7.074;2024-02-26T00:15:15;8.60;61.00
80937;DHT22;70395;51.382;7.074;2024-02-26T00:17:41;8.60;61.20
80937;DHT22;70395;51.382;7.074;2024-02-26T00:20:07;8.60;61.40
80937;DHT22;70395;51.382;7.074;2024-02-26T00:22:34;8.60;61.60
80937;DHT22;70395;51.382;7.074;2024-02-26T00:25:01;8.60;61.40
80937;DHT22;70395;51.382;7.074;2024-02-26T00:27:27;8.60;61.30
80937;DHT22;70395;51.382;7.074;2024-02-26T00:29:52;8.60;61.40
80937;DHT22;70395;51.382;7.074;2024-02-26T00:32:18;8.60;61.30
80937;DHT22;70395;51.382;7.074;2024-02-26T00:34:44;8.60;61.30
80937;DHT22;70395;51.382;7.074;2024-02-26T00:37:10;8.60;61.30
80937;DHT22;70395;51.382;7.074;2024-02-26T00:39:36;8.60;61.30
80937;DHT22;70395;51.382;7.074;2024-02-26T00:42:02;8.60;61.10
80937;DHT22;70395;51.382;7.074;2024-02-26T00:44:28;8.60;61.10
80937;DHT22;70395;51.382;7.074;2024-02-26T00:46:54;8.60;61.20
80937;DHT22;70395;51.382;7.074;2024-02-26T00:49:20;8.60;61.20
80937;DHT22;70395;51.382;7.074;2024-02-26T00:51:45;8.60;61.20
80937;DHT22;70395;51.382;7.074;2024-02-26T00:54:11;8.60;61.10
80937;DHT22;70395;51.382;7.074;2024-02-26T00:56:37;8.60;61.10
80937;DHT22;70395;51.382;7.074;2024-02-26T00:59:03;8.60;60.70
80937;DHT22;70395;51.382;7.074;2024-02-26T01:01:29;8.60;60.60
80937;DHT22;70395;51.382;7.074;2024-02-26T01:03:55;8.60;60.70
80937;DHT22;70395;51.382;7.074;2024-02-26T01:06:21;8.60;60.70
80937;DHT22;70395;51.382;7.074;2024-02-26T01:08:47;8.50;60.60
80937;DHT22;70395;51.382;7.074;2024-02-26T01:11:13;8.50;60.70
80937;DHT22;70395;51.382;7.074;2024-02-26T01:13:39;8.50;60.90
80937;DHT22;70395;51.382;7.074;2024-02-26T01:16:05;8.50;60.90
80937;DHT22;70395;51.382;7.074;2024-02-26T01:18:31;8.50;60.90
80937;DHT22;70395;51.382;7.074;2024-02-26T01:20:57;8.50;60.70
80937;DHT22;70395;51.382;7.074;2024-02-26T01:23:23;8.60;60.70
80937;DHT22;70395;51.382;7.074;2024-02-26T01:25:49;8.60;60.50
80937;DHT22;70395;51.382;7.074;2024-02-26T01:28:15;8.60;60.40
80937;DHT22;70395;51.382;7.074;2024-02-26T01:30:41;8.60;60.30
80937;DHT22;70395;51.382;7.074;2024-02-26T01:33:07;8.60;60.30
80937;DHT22;70395;51.382;7.074;2024-02-26T01:35:33;8.60;60.30
80937;DHT22;70395;51.382;7.074;2024-02-26T01:37:59;8.60;60.30
80937;DHT22;70395;51.382;7.074;2024-02-26T01:40:27;8.50;60.20
80937;DHT22;70395;51.382;7.074;2024-02-26T01:42:53;8.60;60.40
80937;DHT22;70395;51.382;7.074;2024-02-26T01:45:19;8.50;60.20
80937;DHT22;70395;51.382;7.074;2024-02-26T01:47:50;8.50;60.10
80937;DHT22;70395;51.382;7.074;2024-02-26T01:50:18;8.50;60.20
80937;DHT22;70395;51.382;7.074;2024-02-26T01:52:48;8.50;60.40
80937;DHT22;70395;51.382;7.074;2024-02-26T01:55:16;8.50;60.70
80937;DHT22;70395;51.382;7.074;2024-02-26T01:57:45;8.50;60.10
80937;DHT22;70395;51.382;7.074;2024-02-26T02:00:14;8.60;60.20
80937;DHT22;70395;51.382;7.074;2024-02-26T02:02:42;8.60;60.20
80937;DHT22;70395;51.382;7.074;2024-02-26T02:05:10;8.60;60.10
80937;DHT22;70395;51.382;7.074;2024-02-26T02:07:38;8.60;60.10
80937;DHT22;70395;51.382;7.074;2024-02-26T02:10:04;8.50;60.10
80937;DHT22;70395;51.382;7.074;2024-02-26T02:12:31;8.60;60.20
80937;DHT22;70395;51.382;7.074;2024-02-26T02:14:58;8.50;60.10
80937;DHT22;70395;51.382;7.074;2024-02-26T02:17:24;8.60;60.10
80937;DHT22;70395;51.382;7.074;2024-02-26T02:19:50;8.60;60.70
80937;DHT22;70395;51.382;7.074;2024-02-26T02:22:16;8.60;60.10
80937;DHT22;70395;51.382;7.074;2024-02-26T02:24:42;8.60;60.10
80937;DHT22;70395;51.382;7.074;2024-02-26T02:27:08;8.60;60.00
80937;DHT22;70395;51.382;7.074;2024-02-26T02:29:34;8.60;59.90
80937;DHT22;70395;51.382;7.074;2024-02-26T02:32:02;8.60;59.90
80937;DHT22;70395;51.382;7.074;2024-02-26T02:34:31;8.60;60.00
80937;DHT22;70395;51.382;7.074;2024-02-26T02:36:58;8.60;60.10
80937;DHT22;70395;51.382;7.074;2024-02-26T02:39:23;8.50;60.00
80937;DHT22;70395;51.382;7.074;2024-02-26T02:41:49;8.60;59.90
80937;DHT22;70395;51.382;7.074;2024-02-26T02:44:15;8.60;59.80
80937;DHT22;70395;51.382;7.074;2024-02-26T02:46:41;8.60;59.80
80937;DHT22;70395;51.382;7.074;2024-02-26T02:49:10;8.60;59.80
80937;DHT22;70395;51.382;7.074;2024-02-26T02:51:36;8.60;60.00
80937;DHT22;70395;51.382;7.074;2024-02-26T02:54:02;8.60;59.90
80937;DHT22;70395;51.382;7.074;2024-02-26T02:56:28;8.60;59.90
80937;DHT22;70395;51.382;7.074;2024-02-26T02:58:54;8.60;60.00
80937;DHT22;70395;51.382;7.074;2024-02-26T03:01:20;8.60;60.00
80937;DHT22;70395;51.382;7.074;2024-02-26T03:03:46;8.50;60.00
80937;DHT22;70395;51.382;7.074;2024-02-26T03:06:12;8.60;60.20
80937;DHT22;70395;51.382;7.074;2024-02-26T03:08:38;8.60;60.40
80937;DHT22;70395;51.382;7.074;2024-02-26T03:11:05;8.60;60.60
80937;DHT22;70395;51.382;7.074;2024-02-26T03:13:31;8.50;60.90
80937;DHT22;70395;51.382;7.074;2024-02-26T03:15:57;8.50;61.30
80937;DHT22;70395;51.382;7.074;2024-02-26T03:18:23;8.50;61.40
80937;DHT22;70395;51.382;7.074;2024-02-26T03:20:49;8.50;61.60
80937;DHT22;70395;51.382;7.074;2024-02-26T03:23:15;8.50;61.70
80937;DHT22;70395;51.382;7.074;2024-02-26T03:25:44;8.50;62.40
80937;DHT22;70395;51.382;7.074;2024-02-26T03:28:12;8.50;61.80
80937;DHT22;70395;51.382;7.074;2024-02-26T03:30:38;8.40;61.80
80937;DHT22;70395;51.382;7.074;2024-02-26T03:33:04;8.40;62.20
80937;DHT22;70395;51.382;7.074;2024-02-26T03:35:30;8.40;62.30
80937;DHT22;70395;51.382;7.074;2024-02-26T03:37:56;8.40;62.50
80937;DHT22;70395;51.382;7.074;2024-02-26T03:40:21;8.40;62.60
80937;DHT22;70395;51.382;7.074;2024-02-26T03:42:47;8.40;62.60
80937;DHT22;70395;51.382;7.074;2024-02-26T03:45:13;8.40;62.50
80937;DHT22;70395;51.382;7.074;2024-02-26T03:47:39;8.40;62.40
80937;DHT22;70395;51.382;7.074;2024-02-26T03:50:06;8.40;62.60
80937;DHT22;70395;51.382;7.074;2024-02-26T03:52:33;8.40;62.70
80937;DHT22;70395;51.382;7.074;2024-02-26T03:54:59;8.30;62.80
80937;DHT22;70395;51.382;7.074;2024-02-26T03:57:25;8.30;62.80
80937;DHT22;70395;51.382;7.074;2024-02-26T03:59:51;8.30;62.90
80937;DHT22;70395;51.382;7.074;2024-02-26T04:02:17;8.30;63.00
80937;DHT22;70395;51.382;7.074;2024-02-26T04:04:46;8.30;63.10
80937;DHT22;70395;51.382;7.074;2024-02-26T04:07:12;8.30;63.20
80937;DHT22;70395;51.382;7.074;2024-02-26T04:09:38;8.30;63.20
80937;DHT22;70395;51.382;7.074;2024-02-26T04:12:05;8.20;63.10
80937;DHT22;70395;51.382;7.074;2024-02-26T04:14:31;8.30;63.20
80937;DHT22;70395;51.382;7.074;2024-02-26T04:16:57;8.20;63.10
80937;DHT22;70395;51.382;7.074;2024-02-26T04:19:22;8.30;63.30
80937;DHT22;70395;51.382;7.074;2024-02-26T04:21:48;8.20;63.10
80937;DHT22;70395;51.382;7.074;2024-02-26T04:24:14;8.20;63.30
80937;DHT22;70395;51.382;7.074;2024-02-26T04:26:40;8.10;63.50
80937;DHT22;70395;51.382;7.074;2024-02-26T04:29:06;8.10;63.70
80937;DHT22;70395;51.382;7.074;2024-02-26T04:31:31;8.10;63.50
80937;DHT22;70395;51.382;7.074;2024-02-26T04:33:59;8.00;63.60
80937;DHT22;70395;51.382;7.074;2024-02-26T04:36:25;8.00;63.60
80937;DHT22;70395;51.382;7.074;2024-02-26T04:38:51;8.00;64.00
80937;DHT22;70395;51.382;7.074;2024-02-26T04:41:20;8.00;64.00
80937;DHT22;70395;51.382;7.074;2024-02-26T04:43:45;8.00;64.10
80937;DHT22;70395;51.382;7.074;2024-02-26T04:46:11;8.00;64.20
80937;DHT22;70395;51.382;7.074;2024-02-26T04:48:37;8.00;64.40
80937;DHT22;70395;51.382;7.074;2024-02-26T04:51:04;8.00;64.40
80937;DHT22;70395;51.382;7.074;2024-02-26T04:53:30;8.00;64.60
80937;DHT22;70395;51.382;7.074;2024-02-26T04:55:56;7.90;64.60
80937;DHT22;70395;51.382;7.074;2024-02-26T04:58:22;8.00;64.90
80937;DHT22;70395;51.382;7.074;2024-02-26T05:00:48;8.00;64.80
80937;DHT22;70395;51.382;7.074;2024-02-26T05:03:14;8.00;65.00
80937;DHT22;70395;51.382;7.074;2024-02-26T05:05:42;8.00;65.10
80937;DHT22;70395;51.382;7.074;2024-02-26T05:08:09;8.00;65.20
80937;DHT22;70395;51.382;7.074;2024-02-26T05:10:35;8.00;65.00
80937;DHT22;70395;51.382;7.074;2024-02-26T05:13:05;7.90;65.00
80937;DHT22;70395;51.382;7.074;2024-02-26T05:15:32;7.90;65.20
80937;DHT22;70395;51.382;7.074;2024-02-26T05:17:58;7.90;65.20
80937;DHT22;70395;51.382;7.074;2024-02-26T05:20:24;7.90;65.20
80937;DHT22;70395;51.382;7.074;2024-02-26T05:22:50;7.80;65.20
80937;DHT22;70395;51.382;7.074;2024-02-26T05:25:16;7.80;65.30
80937;DHT22;70395;51.382;7.074;2024-02-26T05:27:43;7.80;65.00
80937;DHT22;70395;51.382;7.074;2024-02-26T05:30:11;7.80;65.00
80937;DHT22;70395;51.382;7.074;2024-02-26T05:32:37;7.80;65.00
80937;DHT22;70395;51.382;7.074;2024-02-26T05:35:03;7.80;65.10
80937;DHT22;70395;51.382;7.074;2024-02-26T05:37:30;7.70;65.30
80937;DHT22;70395;51.382;7.074;2024-02-26T05:39:56;7.70;65.70
80937;DHT22;70395;51.382;7.074;2024-02-26T05:42:22;7.60;65.80
80937;DHT22;70395;51.382;7.074;2024-02-26T05:44:48;7.60;66.30
80937;DHT22;70395;51.382;7.074;2024-02-26T05:47:14;7.50;66.20
80937;DHT22;70395;51.382;7.074;2024-02-26T05:49:40;7.50;66.70
80937;DHT22;70395;51.382;7.074;2024-02-26T05:52:06;7.50;66.70
80937;DHT22;70395;51.382;7.074;2024-02-26T05:54:32;7.50;66.90
80937;DHT22;70395;51.382;7.074;2024-02-26T05:56:58;7.40;66.40
80937;DHT22;70395;51.382;7.074;2024-02-26T05:59:24;7.40;66.30
80937;DHT22;70395;51.382;7.074;2024-02-26T06:01:49;7.40;66.30
80937;DHT22;70395;51.382;7.074;2024-02-26T06:04:15;7.40;66.60
80937;DHT22;70395;51.382;7.074;2024-02-26T06:06:44;7.40;66.80
80937;DHT22;70395;51.382;7.074;2024-02-26T06:09:11;7.30;66.50
80937;DHT22;70395;51.382;7.074;2024-02-26T06:11:37;7.30;66.70
80937;DHT22;70395;51.382;7.074;2024-02-26T06:14:04;7.30;66.50
80937;DHT22;70395;51.382;7.074;2024-02-26T06:16:30;7.30;67.60
80937;DHT22;70395;51.382;7.074;2024-02-26T06:18:56;7.30;67.50
80937;DHT22;70395;51.382;7.074;2024-02-26T06:21:22;7.30;67.70
80937;DHT22;70395;51.382;7.074;2024-02-26T06:23:48;7.30;67.80
80937;DHT22;70395;51.382;7.074;2024-02-26T06:26:16;7.30;67.70
80937;DHT22;70395;51.382;7.074;2024-02-26T06:28:41;7.30;67.90
80937;DHT22;70395;51.382;7.074;2024-02-26T06:31:07;7.30;67.70
80937;DHT22;70395;51.382;7.074;2024-02-26T06:33:33;7.40;67.70
80937;DHT22;70395;51.382;7.074;2024-02-26T06:35:59;7.40;67.90
80937;DHT22;70395;51.382;7.074;2024-02-26T06:38:25;7.40;68.00
80937;DHT22;70395;51.382;7.074;2024-02-26T06:40:50;7.40;68.00
80937;DHT22;70395;51.382;7.074;2024-02-26T06:43:16;7.40;68.00
80937;DHT22;70395;51.382;7.074;2024-02-26T06:45:42;7.40;67.90
80937;DHT22;70395;51.382;7.074;2024-02-26T06:48:08;7.50;68.20
80937;DHT22;70395;51.382;7.074;2024-02-26T06:50:34;7.50;68.20
80937;DHT22;70395;51.382;7.074;2024-02-26T06:53:00;7.50;67.80
80937;DHT22;70395;51.382;7.074;2024-02-26T06:55:26;7.50;67.90
80937;DHT22;70395;51.382;7.074;2024-02-26T06:57:52;7.50;68.10
80937;DHT22;70395;51.382;7.074;2024-02-26T07:00:18;7.50;68.40
80937;DHT22;70395;51.382;7.074;2024-02-26T07:02:44;7.50;68.40
80937;DHT22;70395;51.382;7.074;2024-02-26T07:05:10;7.50;67.90
80937;DHT22;70395;51.382;7.074;2024-02-26T07:07:35;7.50;68.30
80937;DHT22;70395;51.382;7.074;2024-02-26T07:10:01;7.50;68.50
80937;DHT22;70395;51.382;7.074;2024-02-26T07:12:30;7.50;68.40
80937;DHT22;70395;51.382;7.074;2024-02-26T07:14:56;7.60;68.30
80937;DHT22;70395;51.382;7.074;2024-02-26T07:17:22;7.60;68.00
80937;DHT22;70395;51.382;7.074;2024-02-26T07:19:47;7.60;68.30
80937;DHT22;70395;51.382;7.074;2024-02-26T07:22:13;7.60;68.10
80937;DHT22;70395;51.382;7.074;2024-02-26T07:24:40;7.60;68.70
80937;DHT22;70395;51.382;7.074;2024-02-26T07:27:06;7.50;68.80
80937;DHT22;70395;51.382;7.074;2024-02-26T07:29:32;7.50;68.80
80937;DHT22;70395;51.382;7.074;2024-02-26T07:31:58;7.60;68.60
80937;DHT22;70395;51.382;7.074;2024-02-26T07:34:25;7.50;68.90
80937;DHT22;70395;51.382;7.074;2024-02-26T07:36:56;7.50;68.70
80937;DHT22;70395;51.382;7.074;2024-02-26T07:39:22;7.50;69.00
80937;DHT22;70395;51.382;7.074;2024-02-26T07:41:48;7.50;69.00
80937;DHT22;70395;51.382;7.074;2024-02-26T07:44:17;7.50;69.40
80937;DHT22;70395;51.382;7.074;2024-02-26T07:46:43;7.50;69.10
80937;DHT22;70395;51.382;7.074;2024-02-26T07:49:09;7.50;69.20
80937;DHT22;70395;51.382;7.074;2024-02-26T07:51:35;7.60;69.40
80937;DHT22;70395;51.382;7.074;2024-02-26T07:54:02;7.60;69.40
80937;DHT22;70395;51.382;7.074;2024-02-26T07:56:28;7.60;69.70
80937;DHT22;70395;51.382;7.074;2024-02-26T07:58:53;7.60;69.70
80937;DHT22;70395;51.382;7.074;2024-02-26T08:01:19;7.60;69.60
80937;DHT22;70395;51.382;7.074;2024-02-26T08:03:45;7.70;69.60
80937;DHT22;70395;51.382;7.074;2024-02-26T08:06:11;7.70;69.80
80937;DHT22;70395;51.382;7.074;2024-02-26T08:08:37;7.70;69.70
80937;DHT22;70395;51.382;7.074;2024-02-26T08:11:03;7.70;69.80
80937;DHT22;70395;51.382;7.074;2024-02-26T08:13:29;7.80;69.90
80937;DHT22;70395;51.382;7.074;2024-02-26T08:15:55;7.80;69.70
80937;DHT22;70395;51.382;7.074;2024-02-26T08:18:20;7.80;69.60
80937;DHT22;70395;51.382;7.074;2024-02-26T08:20:46;7.90;69.80
80937;DHT22;70395;51.382;7.074;2024-02-26T08:23:14;7.90;69.80
80937;DHT22;70395;51.382;7.074;2024-02-26T08:25:40;8.00;69.50
80937;DHT22;70395;51.382;7.074;2024-02-26T08:28:06;7.90;69.50
80937;DHT22;70395;51.382;7.074;2024-02-26T08:30:32;8.00;69.80
80937;DHT22;70395;51.382;7.074;2024-02-26T08:32:57;8.00;69.60
80937;DHT22;70395;51.382;7.074;2024-02-26T08:35:23;8.00;69.60
80937;DHT22;70395;51.382;7.074;2024-02-26T08:37:49;8.00;69.80
80937;DHT22;70395;51.382;7.074;2024-02-26T08:40:15;8.10;69.90
80937;DHT22;70395;51.382;7.074;2024-02-26T08:42:41;8.10;69.90
80937;DHT22;70395;51.382;7.074;2024-02-26T08:45:08;8.10;69.70
80937;DHT22;70395;51.382;7.074;2024-02-26T08:47:34;8.20;69.60
80937;DHT22;70395;51.382;7.074;2024-02-26T08:50:00;8.20;69.50
80937;DHT22;70395;51.382;7.074;2024-02-26T08:52:26;8.20;69.60
80937;DHT22;70395;51.382;7.074;2024-02-26T08:54:52;8.20;69.60
80937;DHT22;70395;51.382;7.074;2024-02-26T08:57:17;8.20;69.40
80937;DHT22;70395;51.382;7.074;2024-02-26T08:59:43;8.30;69.40
80937;DHT22;70395;51.382;7.074;2024-02-26T09:02:09;8.30;69.60
80937;DHT22;70395;51.382;7.074;2024-02-26T09:04:35;8.30;69.70
80937;DHT22;70395;51.382;7.074;2024-02-26T09:07:01;8.30;69.60
80937;DHT22;70395;51.382;7.074;2024-02-26T09:09:28;8.30;69.40
80937;DHT22;70395;51.382;7.074;2024-02-26T09:11:53;8.40;70.00
80937;DHT22;70395;51.382;7.074;2024-02-26T09:14:21;8.40;69.60
80937;DHT22;70395;51.382;7.074;2024-02-26T09:16:47;8.40;69.10
80937;DHT22;70395;51.382;7.074;2024-02-26T09:19:14;8.40;68.90
80937;DHT22;70395;51.382;7.074;2024-02-26T09:21:46;8.40;68.90
80937;DHT22;70395;51.382;7.074;2024-02-26T09:24:12;8.40;69.00
80937;DHT22;70395;51.382;7.074;2024-02-26T09:26:38;8.40;69.10
80937;DHT22;70395;51.382;7.074;2024-02-26T09:29:04;8.40;69.20
80937;DHT22;70395;51.382;7.074;2024-02-26T09:31:31;8.40;69.30
80937;DHT22;70395;51.382;7.074;2024-02-26T09:33:57;8.40;69.30
80937;DHT22;70395;51.382;7.074;2024-02-26T09:36:23;8.40;69.20
80937;DHT22;70395;51.382;7.074;2024-02-26T09:38:49;8.40;69.00
80937;DHT22;70395;51.382;7.074;2024-02-26T09:41:15;8.40;69.00
80937;DHT22;70395;51.382;7.074;2024-02-26T09:43:45;8.50;69.20
80937;DHT22;70395;51.382;7.074;2024-02-26T09:46:14;8.50;69.10
80937;DHT22;70395;51.382;7.074;2024-02-26T09:48:42;8.50;69.30
80937;DHT22;70395;51.382;7.074;2024-02-26T09:51:11;8.50;69.20
80937;DHT22;70395;51.382;7.074;2024-02-26T09:53:38;8.50;69.10
80937;DHT22;70395;51.382;7.074;2024-02-26T09:56:08;8.50;69.00
80937;DHT22;70395;51.382;7.074;2024-02-26T09:58:35;8.60;69.00
80937;DHT22;70395;51.382;7.074;2024-02-26T10:01:11;8.60;69.10
80937;DHT22;70395;51.382;7.074;2024-02-26T10:03:42;8.60;69.30
80937;DHT22;70395;51.382;7.074;2024-02-26T10:06:11;8.60;69.00
80937;DHT22;70395;51.382;7.074;2024-02-26T10:08:37;8.60;69.00
80937;DHT22;70395;51.382;7.074;2024-02-26T10:11:10;8.60;69.10
80937;DHT22;70395;51.382;7.074;2024-02-26T10:13:36;8.60;69.00
80937;DHT22;70395;51.382;7.074;2024-02-26T10:16:03;8.70;69.10
80937;DHT22;70395;51.382;7.074;2024-02-26T10:18:56;8.70;70.00
80937;DHT22;70395;51.382;7.074;2024-02-26T10:21:23;8.70;69.70
80937;DHT22;70395;51.382;7.074;2024-02-26T10:23:49;8.70;69.50
80937;DHT22;70395;51.382;7.074;2024-02-26T10:26:20;8.80;69.50
80937;DHT22;70395;51.382;7.074;2024-02-26T10:28:46;8.80;69.50
80937;DHT22;70395;51.382;7.074;2024-02-26T10:31:14;8.80;69.20
80937;DHT22;70395;51.382;7.074;2024-02-26T10:33:41;8.90;69.20
80937;DHT22;70395;51.382;7.074;2024-02-26T10:36:09;8.90;69.10
80937;DHT22;70395;51.382;7.074;2024-02-26T10:38:36;8.90;69.00
80937;DHT22;70395;51.382;7.074;2024-02-26T10:41:06;8.90;69.10
80937;DHT22;70395;51.382;7.074;2024-02-26T10:43:33;8.90;69.30
80937;DHT22;70395;51.382;7.074;2024-02-26T10:45:59;8.90;69.30
80937;DHT22;70395;51.382;7.074;2024-02-26T10:48:26;8.90;69.40
80937;DHT22;70395;51.382;7.074;2024-02-26T10:50:52;8.90;69.30
80937;DHT22;70395;51.382;7.074;2024-02-26T10:53:20;8.90;69.30
80937;DHT22;70395;51.382;7.074;2024-02-26T10:55:57;9.00;69.50
80937;DHT22;70395;51.382;7.074;2024-02-26T10:58:27;9.10;69.60
80937;DHT22;70395;51.382;7.074;2024-02-26T11:00:56;9.00;69.30
80937;DHT22;70395;51.382;7.074;2024-02-26T11:03:24;9.00;69.20
80937;DHT22;70395;51.382;7.074;2024-02-26T11:05:51;9.10;69.20
80937;DHT22;70395;51.382;7.074;2024-02-26T11:08:21;9.10;69.10
80937;DHT22;70395;51.382;7.074;2024-02-26T11:10:53;9.20;69.10
80937;DHT22;70395;51.382;7.074;2024-02-26T11:13:21;9.20;68.90
80937;DHT22;70395;51.382;7.074;2024-02-26T11:15:53;9.20;68.80
80937;DHT22;70395;51.382;7.074;2024-02-26T11:18:23;9.20;68.90
80937;DHT22;70395;51.382;7.074;2024-02-26T11:20:54;9.20;69.20
80937;DHT22;70395;51.382;7.074;2024-02-26T11:23:23;9.30;69.30
80937;DHT22;70395;51.382;7.074;2024-02-26T11:25:50;9.30;69.20
80937;DHT22;70395;51.382;7.074;2024-02-26T11:28:20;9.40;69.20
80937;DHT22;70395;51.382;7.074;2024-02-26T11:30:48;9.40;69.20
80937;DHT22;70395;51.382;7.074;2024-02-26T11:33:16;9.40;69.10
80937;DHT22;70395;51.382;7.074;2024-02-26T11:35:42;9.50;69.20
80937;DHT22;70395;51.382;7.074;2024-02-26T11:38:21;9.50;69.40
80937;DHT22;70395;51.382;7.074;2024-02-26T11:40:50;9.60;69.40
80937;DHT22;70395;51.382;7.074;2024-02-26T11:43:23;9.70;69.40
80937;DHT22;70395;51.382;7.074;2024-02-26T11:46:25;9.80;69.60
80937;DHT22;70395;51.382;7.074;2024-02-26T11:48:55;9.90;69.80
80937;DHT22;70395;51.382;7.074;2024-02-26T11:51:27;9.90;69.40
80937;DHT22;70395;51.382;7.074;2024-02-26T11:53:57;10.00;68.40
80937;DHT22;70395;51.382;7.074;2024-02-26T11:56:24;10.10;68.20
80937;DHT22;70395;51.382;7.074;2024-02-26T11:59:08;10.20;68.10
80937;DHT22;70395;51.382;7.074;2024-02-26T12:01:45;10.20;68.00
80937;DHT22;70395;51.382;7.074;2024-02-26T12:04:24;10.30;68.20
80937;DHT22;70395;51.382;7.074;2024-02-26T12:06:56;10.40;68.30
80937;DHT22;70395;51.382;7.074;2024-02-26T12:09:41;10.40;68.20
80937;DHT22;70395;51.382;7.074;2024-02-26T12:12:08;10.50;67.70
80937;DHT22;70395;51.382;7.074;2024-02-26T12:14:39;10.60;67.30
80937;DHT22;70395;51.382;7.074;2024-02-26T12:17:07;10.70;67.40
80937;DHT22;70395;51.382;7.074;2024-02-26T12:19:44;10.70;67.50
80937;DHT22;70395;51.382;7.074;2024-02-26T12:22:13;10.80;67.60
80937;DHT22;70395;51.382;7.074;2024-02-26T12:24:40;10.80;67.30
80937;DHT22;70395;51.382;7.074;2024-02-26T12:27:06;10.90;67.30
80937;DHT22;70395;51.382;7.074;2024-02-26T12:29:32;10.90;66.40
80937;DHT22;70395;51.382;7.074;2024-02-26T12:31:58;10.90;66.30
80937;DHT22;70395;51.382;7.074;2024-02-26T12:34:24;11.00;66.40
80937;DHT22;70395;51.382;7.074;2024-02-26T12:36:50;11.00;66.20
80937;DHT22;70395;51.382;7.074;2024-02-26T12:39:16;11.00;66.30
80937;DHT22;70395;51.382;7.074;2024-02-26T12:41:42;11.10;65.80
80937;DHT22;70395;51.382;7.074;2024-02-26T12:44:17;11.10;65.60
80937;DHT22;70395;51.382;7.074;2024-02-26T12:46:44;11.10;64.80
80937;DHT22;70395;51.382;7.074;2024-02-26T12:49:15;11.10;64.40
80937;DHT22;70395;51.382;7.074;2024-02-26T12:51:44;11.10;64.30
80937;DHT22;70395;51.382;7.074;2024-02-26T12:54:11;11.20;64.40
80937;DHT22;70395;51.382;7.074;2024-02-26T12:56:38;11.10;63.80
80937;DHT22;70395;51.382;7.074;2024-02-26T12:59:04;11.20;63.50
80937;DHT22;70395;51.382;7.074;2024-02-26T13:01:31;11.10;63.40
80937;DHT22;70395;51.382;7.074;2024-02-26T13:03:57;11.10;63.40
80937;DHT22;70395;51.382;7.074;2024-02-26T13:06:26;11.10;63.30
80937;DHT22;70395;51.382;7.074;2024-02-26T13:08:56;11.10;63.10
80937;DHT22;70395;51.382;7.074;2024-02-26T13:11:24;11.20;63.50
80937;DHT22;70395;51.382;7.074;2024-02-26T13:13:50;11.10;62.80
80937;DHT22;70395;51.382;7.074;2024-02-26T13:16:16;11.20;62.60
80937;DHT22;70395;51.382;7.074;2024-02-26T13:18:42;11.20;62.90
80937;DHT22;70395;51.382;7.074;2024-02-26T13:21:13;11.20;62.90
80937;DHT22;70395;51.382;7.074;2024-02-26T13:23:43;11.30;63.10
80937;DHT22;70395;51.382;7.074;2024-02-26T13:26:13;11.30;63.10
80937;DHT22;70395;51.382;7.074;2024-02-26T13:28:40;11.30;62.90
80937;DHT22;70395;51.382;7.074;2024-02-26T13:31:06;11.40;62.40
80937;DHT22;70395;51.382;7.074;2024-02-26T13:33:34;11.40;62.20
80937;DHT22;70395;51.382;7.074;2024-02-26T13:36:00;11.40;61.80
80937;DHT22;70395;51.382;7.074;2024-02-26T13:38:27;11.40;61.90
80937;DHT22;70395;51.382;7.074;2024-02-26T13:40:54;11.40;61.70
80937;DHT22;70395;51.382;7.074;2024-02-26T13:43:20;11.40;61.80
80937;DHT22;70395;51.382;7.074;2024-02-26T13:45:47;11.40;61.50
80937;DHT22;70395;51.382;7.074;2024-02-26T13:48:14;11.40;61.40
80937;DHT22;70395;51.382;7.074;2024-02-26T13:50:40;11.30;61.10
80937;DHT22;70395;51.382;7.074;2024-02-26T13:53:08;11.40;61.10
80937;DHT22;70395;51.382;7.074;2024-02-26T13:55:35;11.40;61.10
80937;DHT22;70395;51.382;7.074;2024-02-26T13:58:01;11.40;61.40
80937;DHT22;70395;51.382;7.074;2024-02-26T14:00:29;11.40;61.50
80937;DHT22;70395;51.382;7.074;2024-02-26T14:03:00;11.40;61.60
80937;DHT22;70395;51.382;7.074;2024-02-26T14:05:26;11.50;61.20
80937;DHT22;70395;51.382;7.074;2024-02-26T14:07:53;11.50;60.70
80937;DHT22;70395;51.382;7.074;2024-02-26T14:10:20;11.50;60.40
80937;DHT22;70395;51.382;7.074;2024-02-26T14:12:46;11.50;60.70
80937;DHT22;70395;51.382;7.074;2024-02-26T14:15:12;11.50;60.00
80937;DHT22;70395;51.382;7.074;2024-02-26T14:17:37;11.50;60.10
80937;DHT22;70395;51.382;7.074;2024-02-26T14:20:04;11.40;59.90
80937;DHT22;70395;51.382;7.074;2024-02-26T14:22:30;11.40;60.10
80937;DHT22;70395;51.382;7.074;2024-02-26T14:24:57;11.40;60.20
80937;DHT22;70395;51.382;7.074;2024-02-26T14:27:23;11.40;60.20
80937;DHT22;70395;51.382;7.074;2024-02-26T14:29:49;11.40;60.50
80937;DHT22;70395;51.382;7.074;2024-02-26T14:32:15;11.40;60.30
80937;DHT22;70395;51.382;7.074;2024-02-26T14:34:41;11.30;60.10
80937;DHT22;70395;51.382;7.074;2024-02-26T14:37:07;11.30;60.20
80937;DHT22;70395;51.382;7.074;2024-02-26T14:39:33;11.30;60.20
80937;DHT22;70395;51.382;7.074;2024-02-26T14:41:59;11.30;60.40
80937;DHT22;70395;51.382;7.074;2024-02-26T14:44:26;11.30;60.20
80937;DHT22;70395;51.382;7.074;2024-02-26T14:46:53;11.30;60.20
80937;DHT22;70395;51.382;7.074;2024-02-26T14:49:19;11.30;60.30
80937;DHT22;70395;51.382;7.074;2024-02-26T14:51:45;11.30;60.20
80937;DHT22;70395;51.382;7.074;2024-02-26T14:54:12;11.30;59.80
80937;DHT22;70395;51.382;7.074;2024-02-26T14:56:38;11.30;59.70
80937;DHT22;70395;51.382;7.074;2024-02-26T14:59:04;11.30;59.90
80937;DHT22;70395;51.382;7.074;2024-02-26T15:01:32;11.30;60.00
80937;DHT22;70395;51.382;7.074;2024-02-26T15:03:58;11.30;59.80
80937;DHT22;70395;51.382;7.074;2024-02-26T15:06:24;11.30;59.90
80937;DHT22;70395;51.382;7.074;2024-02-26T15:08:52;11.30;60.00
80937;DHT22;70395;51.382;7.074;2024-02-26T15:11:18;11.20;60.00
80937;DHT22;70395;51.382;7.074;2024-02-26T15:13:44;11.30;60.00
80937;DHT22;70395;51.382;7.074;2024-02-26T15:16:17;11.30;59.80
80937;DHT22;70395;51.382;7.074;2024-02-26T15:18:45;11.20;59.80
80937;DHT22;70395;51.382;7.074;2024-02-26T15:21:11;11.30;59.90
80937;DHT22;70395;51.382;7.074;2024-02-26T15:23:39;11.30;59.70
80937;DHT22;70395;51.382;7.074;2024-02-26T15:26:05;11.20;59.50
80937;DHT22;70395;51.382;7.074;2024-02-26T15:28:31;11.20;59.40
80937;DHT22;70395;51.382;7.074;2024-02-26T15:30:56;11.20;59.10
80937;DHT22;70395;51.382;7.074;2024-02-26T15:33:23;11.20;59.30
80937;DHT22;70395;51.382;7.074;2024-02-26T15:35:50;11.20;59.10
80937;DHT22;70395;51.382;7.074;2024-02-26T15:38:16;11.10;58.90
80937;DHT22;70395;51.382;7.074;2024-02-26T15:40:41;11.10;59.00